sensor_id;sensor_type;location;lat;lon;timestamp;P1;durP1;ratioP1;P2;durP2;ratioP2
20908;SDS011;10614;53.198;6.570;2022-08-23T00:01:20;1.30;;;1.15;;
20908;SDS011;10614;53.198;6.570;2022-08-23T00:03:26;2.90;;;1.58;;
20908;SDS011;10614;53.198;6.570;2022-08-23T00:05:28;1.73;;;1.10;;
20908;SDS011;10614;53.198;6.570;2022-08-23T00:07:31;2.45;;;1.08;;
20908;SDS011;10614;53.198;6.570;2022-08-23T00:09:33;2.47;;;1.08;;
20908;SDS011;10614;53.198;6.570;2022-08-23T00:11:36;1.55;;;1.10;;
20908;SDS011;10614;53.198;6.570;2022-08-23T00:13:40;4.60;;;1.15;;
20908;SDS011;10614;53.198;6.570;2022-08-23T00:15:42;2.25;;;1.20;;
20908;SDS011;10614;53.198;6.570;2022-08-23T00:17:43;1.55;;;1.08;;
20908;SDS011;10614;53.198;6.570;2022-08-23T00:19:45;2.10;;;1.05;;
20908;SDS011;10614;53.198;6.570;2022-08-23T00:21:48;2.72;;;1.20;;
20908;SDS011;10614;53.198;6.570;2022-08-23T00:23:53;1.65;;;1.25;;
20908;SDS011;10614;53.198;6.570;2022-08-23T00:25:55;1.42;;;1.10;;
20908;SDS011;10614;53.198;6.570;2022-08-23T00:27:56;2.55;;;1.20;;
20908;SDS011;10614;53.198;6.570;2022-08-23T00:29:58;3.38;;;1.20;;
20908;SDS011;10614;53.198;6.570;2022-08-23T00:32:00;3.55;;;1.25;;
20908;SDS011;10614;53.198;6.570;2022-08-23T00:34:03;1.10;;;0.88;;
20908;SDS011;10614;53.198;6.570;2022-08-23T00:36:05;3.65;;;1.42;;
20908;SDS011;10614;53.198;6.570;2022-08-23T00:38:06;1.73;;;1.10;;
20908;SDS011;10614;53.198;6.570;2022-08-23T00:40:11;2.08;;;1.40;;
20908;SDS011;10614;53.198;6.570;2022-08-23T00:42:15;2.22;;;1.33;;
20908;SDS011;10614;53.198;6.570;2022-08-23T00:44:46;1.40;;;1.10;;
20908;SDS011;10614;53.198;6.570;2022-08-23T00:47:06;2.28;;;1.30;;
20908;SDS011;10614;53.198;6.570;2022-08-23T00:49:26;2.67;;;1.60;;
20908;SDS011;10614;53.198;6.570;2022-08-23T00:51:30;2.83;;;1.27;;
20908;SDS011;10614;53.198;6.570;2022-08-23T00:53:38;4.45;;;1.58;;
20908;SDS011;10614;53.198;6.570;2022-08-23T00:55:44;2.47;;;1.38;;
20908;SDS011;10614;53.198;6.570;2022-08-23T00:57:48;1.70;;;1.40;;
20908;SDS011;10614;53.198;6.570;2022-08-23T00:59:51;2.58;;;1.13;;
20908;SDS011;10614;53.198;6.570;2022-08-23T01:01:53;2.22;;;1.50;;
20908;SDS011;10614;53.198;6.570;2022-08-23T01:03:56;2.33;;;1.38;;
20908;SDS011;10614;53.198;6.570;2022-08-23T01:06:00;2.05;;;1.27;;
20908;SDS011;10614;53.198;6.570;2022-08-23T01:08:06;2.45;;;1.42;;
20908;SDS011;10614;53.198;6.570;2022-08-23T01:10:09;2.20;;;1.30;;
20908;SDS011;10614;53.198;6.570;2022-08-23T01:12:19;1.70;;;1.05;;
20908;SDS011;10614;53.198;6.570;2022-08-23T01:14:25;3.88;;;1.58;;
20908;SDS011;10614;53.198;6.570;2022-08-23T01:16:32;3.70;;;1.40;;
20908;SDS011;10614;53.198;6.570;2022-08-23T01:18:38;2.63;;;1.30;;
20908;SDS011;10614;53.198;6.570;2022-08-23T01:20:43;2.80;;;1.20;;
20908;SDS011;10614;53.198;6.570;2022-08-23T01:22:53;2.17;;;1.63;;
20908;SDS011;10614;53.198;6.570;2022-08-23T01:25:00;3.92;;;1.50;;
20908;SDS011;10614;53.198;6.570;2022-08-23T01:27:04;2.22;;;1.50;;
20908;SDS011;10614;53.198;6.570;2022-08-23T01:29:07;2.78;;;1.45;;
20908;SDS011;10614;53.198;6.570;2022-08-23T01:31:09;2.05;;;1.35;;
20908;SDS011;10614;53.198;6.570;2022-08-23T01:33:12;2.05;;;1.45;;
20908;SDS011;10614;53.198;6.570;2022-08-23T01:35:14;2.35;;;1.40;;
20908;SDS011;10614;53.198;6.570;2022-08-23T01:37:17;2.78;;;1.60;;
20908;SDS011;10614;53.198;6.570;2022-08-23T01:39:20;2.17;;;1.50;;
20908;SDS011;10614;53.198;6.570;2022-08-23T01:41:23;3.40;;;1.65;;
20908;SDS011;10614;53.198;6.570;2022-08-23T01:43:25;2.38;;;1.60;;
20908;SDS011;10614;53.198;6.570;2022-08-23T01:45:27;2.70;;;1.73;;
20908;SDS011;10614;53.198;6.570;2022-08-23T01:47:29;3.47;;;1.67;;
20908;SDS011;10614;53.198;6.570;2022-08-23T01:49:31;1.83;;;1.58;;
20908;SDS011;10614;53.198;6.570;2022-08-23T01:51:33;3.67;;;1.90;;
20908;SDS011;10614;53.198;6.570;2022-08-23T01:53:36;2.50;;;1.80;;
20908;SDS011;10614;53.198;6.570;2022-08-23T01:55:38;3.10;;;1.60;;
20908;SDS011;10614;53.198;6.570;2022-08-23T01:57:43;2.33;;;1.33;;
20908;SDS011;10614;53.198;6.570;2022-08-23T02:01:48;2.83;;;1.60;;
20908;SDS011;10614;53.198;6.570;2022-08-23T02:03:50;3.35;;;1.60;;
20908;SDS011;10614;53.198;6.570;2022-08-23T02:05:52;2.83;;;1.45;;
20908;SDS011;10614;53.198;6.570;2022-08-23T02:07:54;2.85;;;1.80;;
20908;SDS011;10614;53.198;6.570;2022-08-23T02:09:56;2.83;;;1.85;;
20908;SDS011;10614;53.198;6.570;2022-08-23T02:11:57;2.35;;;1.55;;
20908;SDS011;10614;53.198;6.570;2022-08-23T02:14:02;3.10;;;1.60;;
20908;SDS011;10614;53.198;6.570;2022-08-23T02:16:05;3.25;;;1.95;;
20908;SDS011;10614;53.198;6.570;2022-08-23T02:18:07;4.40;;;2.00;;
20908;SDS011;10614;53.198;6.570;2022-08-23T02:20:10;2.38;;;1.73;;
20908;SDS011;10614;53.198;6.570;2022-08-23T02:22:13;3.15;;;1.90;;
20908;SDS011;10614;53.198;6.570;2022-08-23T02:24:16;3.53;;;2.28;;
20908;SDS011;10614;53.198;6.570;2022-08-23T02:26:20;3.83;;;2.15;;
20908;SDS011;10614;53.198;6.570;2022-08-23T02:28:22;2.97;;;1.80;;
20908;SDS011;10614;53.198;6.570;2022-08-23T02:30:26;4.30;;;2.35;;
20908;SDS011;10614;53.198;6.570;2022-08-23T02:32:27;3.33;;;1.88;;
20908;SDS011;10614;53.198;6.570;2022-08-23T02:34:29;3.72;;;2.10;;
20908;SDS011;10614;53.198;6.570;2022-08-23T02:36:32;3.15;;;2.05;;
20908;SDS011;10614;53.198;6.570;2022-08-23T02:38:34;3.78;;;2.15;;
20908;SDS011;10614;53.198;6.570;2022-08-23T02:40:36;3.40;;;2.20;;
20908;SDS011;10614;53.198;6.570;2022-08-23T02:42:38;3.88;;;2.03;;
20908;SDS011;10614;53.198;6.570;2022-08-23T02:44:40;4.28;;;2.53;;
20908;SDS011;10614;53.198;6.570;2022-08-23T02:46:44;3.72;;;2.45;;
20908;SDS011;10614;53.198;6.570;2022-08-23T02:48:46;4.72;;;2.00;;
20908;SDS011;10614;53.198;6.570;2022-08-23T02:50:48;4.65;;;2.33;;
20908;SDS011;10614;53.198;6.570;2022-08-23T02:52:50;4.40;;;2.53;;
20908;SDS011;10614;53.198;6.570;2022-08-23T02:54:51;3.50;;;2.30;;
20908;SDS011;10614;53.198;6.570;2022-08-23T02:56:53;3.78;;;2.50;;
20908;SDS011;10614;53.198;6.570;2022-08-23T02:58:55;4.95;;;2.25;;
20908;SDS011;10614;53.198;6.570;2022-08-23T03:00:56;4.22;;;2.35;;
20908;SDS011;10614;53.198;6.570;2022-08-23T03:03:00;5.47;;;2.40;;
20908;SDS011;10614;53.198;6.570;2022-08-23T03:05:01;3.15;;;2.10;;
20908;SDS011;10614;53.198;6.570;2022-08-23T03:07:03;4.95;;;2.65;;
20908;SDS011;10614;53.198;6.570;2022-08-23T03:09:05;3.33;;;2.33;;
20908;SDS011;10614;53.198;6.570;2022-08-23T03:11:10;3.47;;;2.55;;
20908;SDS011;10614;53.198;6.570;2022-08-23T03:15:14;3.65;;;2.38;;
20908;SDS011;10614;53.198;6.570;2022-08-23T03:17:16;2.88;;;2.10;;
20908;SDS011;10614;53.198;6.570;2022-08-23T03:19:19;4.00;;;2.35;;
20908;SDS011;10614;53.198;6.570;2022-08-23T03:21:21;2.47;;;2.03;;
20908;SDS011;10614;53.198;6.570;2022-08-23T03:23:23;3.33;;;2.45;;
20908;SDS011;10614;53.198;6.570;2022-08-23T03:25:25;5.65;;;2.85;;
20908;SDS011;10614;53.198;6.570;2022-08-23T03:27:28;5.85;;;3.28;;
20908;SDS011;10614;53.198;6.570;2022-08-23T03:29:30;3.85;;;2.50;;
20908;SDS011;10614;53.198;6.570;2022-08-23T03:31:33;3.72;;;2.70;;
20908;SDS011;10614;53.198;6.570;2022-08-23T03:33:35;5.15;;;2.63;;
20908;SDS011;10614;53.198;6.570;2022-08-23T03:35:39;4.57;;;2.67;;
20908;SDS011;10614;53.198;6.570;2022-08-23T03:37:40;4.20;;;2.75;;
20908;SDS011;10614;53.198;6.570;2022-08-23T03:39:42;4.20;;;2.83;;
20908;SDS011;10614;53.198;6.570;2022-08-23T03:41:44;5.03;;;3.10;;
20908;SDS011;10614;53.198;6.570;2022-08-23T03:43:45;5.10;;;3.22;;
20908;SDS011;10614;53.198;6.570;2022-08-23T03:45:47;4.28;;;2.88;;
20908;SDS011;10614;53.198;6.570;2022-08-23T03:47:49;5.07;;;3.03;;
20908;SDS011;10614;53.198;6.570;2022-08-23T03:49:51;4.82;;;3.15;;
20908;SDS011;10614;53.198;6.570;2022-08-23T03:51:54;6.25;;;3.38;;
20908;SDS011;10614;53.198;6.570;2022-08-23T03:53:55;5.63;;;3.60;;
20908;SDS011;10614;53.198;6.570;2022-08-23T03:55:57;4.30;;;2.95;;
20908;SDS011;10614;53.198;6.570;2022-08-23T03:57:59;5.43;;;3.17;;
20908;SDS011;10614;53.198;6.570;2022-08-23T04:00:00;5.63;;;3.55;;
20908;SDS011;10614;53.198;6.570;2022-08-23T04:02:02;5.30;;;3.50;;
20908;SDS011;10614;53.198;6.570;2022-08-23T04:04:05;5.68;;;3.35;;
20908;SDS011;10614;53.198;6.570;2022-08-23T04:06:06;4.40;;;2.95;;
20908;SDS011;10614;53.198;6.570;2022-08-23T04:08:09;4.88;;;3.38;;
20908;SDS011;10614;53.198;6.570;2022-08-23T04:10:12;5.07;;;2.88;;
20908;SDS011;10614;53.198;6.570;2022-08-23T04:12:14;6.18;;;3.40;;
20908;SDS011;10614;53.198;6.570;2022-08-23T04:14:16;5.63;;;3.47;;
20908;SDS011;10614;53.198;6.570;2022-08-23T04:16:18;4.90;;;3.42;;
20908;SDS011;10614;53.198;6.570;2022-08-23T04:18:20;6.43;;;3.38;;
20908;SDS011;10614;53.198;6.570;2022-08-23T04:20:21;8.50;;;3.60;;
20908;SDS011;10614;53.198;6.570;2022-08-23T04:22:24;5.32;;;3.15;;
20908;SDS011;10614;53.198;6.570;2022-08-23T04:24:27;5.70;;;3.42;;
20908;SDS011;10614;53.198;6.570;2022-08-23T04:26:30;6.03;;;3.42;;
20908;SDS011;10614;53.198;6.570;2022-08-23T04:28:32;4.35;;;3.10;;
20908;SDS011;10614;53.198;6.570;2022-08-23T04:30:34;4.95;;;3.25;;
20908;SDS011;10614;53.198;6.570;2022-08-23T04:32:36;5.22;;;3.15;;
20908;SDS011;10614;53.198;6.570;2022-08-23T04:34:40;6.20;;;3.75;;
20908;SDS011;10614;53.198;6.570;2022-08-23T04:36:43;5.63;;;3.35;;
20908;SDS011;10614;53.198;6.570;2022-08-23T04:38:45;4.13;;;3.00;;
20908;SDS011;10614;53.198;6.570;2022-08-23T04:40:48;4.35;;;2.97;;
20908;SDS011;10614;53.198;6.570;2022-08-23T04:43:07;4.57;;;2.83;;
20908;SDS011;10614;53.198;6.570;2022-08-23T04:45:09;4.20;;;2.88;;
20908;SDS011;10614;53.198;6.570;2022-08-23T04:47:10;3.85;;;2.65;;
20908;SDS011;10614;53.198;6.570;2022-08-23T04:49:12;6.05;;;2.90;;
20908;SDS011;10614;53.198;6.570;2022-08-23T04:51:14;4.65;;;3.15;;
20908;SDS011;10614;53.198;6.570;2022-08-23T04:53:17;4.95;;;3.00;;
20908;SDS011;10614;53.198;6.570;2022-08-23T04:55:19;5.85;;;3.15;;
20908;SDS011;10614;53.198;6.570;2022-08-23T04:57:22;4.82;;;3.22;;
20908;SDS011;10614;53.198;6.570;2022-08-23T04:59:24;5.22;;;2.97;;
20908;SDS011;10614;53.198;6.570;2022-08-23T05:01:26;4.53;;;3.05;;
20908;SDS011;10614;53.198;6.570;2022-08-23T05:03:28;5.97;;;3.42;;
20908;SDS011;10614;53.198;6.570;2022-08-23T05:05:31;6.03;;;3.50;;
20908;SDS011;10614;53.198;6.570;2022-08-23T05:07:33;5.70;;;3.53;;
20908;SDS011;10614;53.198;6.570;2022-08-23T05:09:34;5.75;;;3.63;;
20908;SDS011;10614;53.198;6.570;2022-08-23T05:11:36;5.97;;;3.58;;
20908;SDS011;10614;53.198;6.570;2022-08-23T05:13:40;5.60;;;3.42;;
20908;SDS011;10614;53.198;6.570;2022-08-23T05:15:42;5.05;;;3.10;;
20908;SDS011;10614;53.198;6.570;2022-08-23T05:17:43;5.03;;;3.28;;
20908;SDS011;10614;53.198;6.570;2022-08-23T05:19:45;5.40;;;3.38;;
20908;SDS011;10614;53.198;6.570;2022-08-23T05:21:47;8.00;;;3.50;;
20908;SDS011;10614;53.198;6.570;2022-08-23T05:23:49;5.25;;;3.17;;
20908;SDS011;10614;53.198;6.570;2022-08-23T05:25:51;4.60;;;3.45;;
20908;SDS011;10614;53.198;6.570;2022-08-23T05:27:54;5.97;;;3.17;;
20908;SDS011;10614;53.198;6.570;2022-08-23T05:29:57;5.72;;;3.70;;
20908;SDS011;10614;53.198;6.570;2022-08-23T05:31:59;5.75;;;3.58;;
20908;SDS011;10614;53.198;6.570;2022-08-23T05:34:01;8.13;;;4.10;;
20908;SDS011;10614;53.198;6.570;2022-08-23T05:36:03;6.72;;;4.03;;
20908;SDS011;10614;53.198;6.570;2022-08-23T05:38:06;6.07;;;4.00;;
20908;SDS011;10614;53.198;6.570;2022-08-23T05:40:08;6.28;;;3.75;;
20908;SDS011;10614;53.198;6.570;2022-08-23T05:42:11;5.72;;;3.63;;
20908;SDS011;10614;53.198;6.570;2022-08-23T05:44:15;4.97;;;3.05;;
20908;SDS011;10614;53.198;6.570;2022-08-23T05:46:18;7.07;;;3.70;;
20908;SDS011;10614;53.198;6.570;2022-08-23T05:48:22;4.95;;;3.40;;
20908;SDS011;10614;53.198;6.570;2022-08-23T05:50:24;5.72;;;3.53;;
20908;SDS011;10614;53.198;6.570;2022-08-23T05:52:25;5.43;;;3.28;;
20908;SDS011;10614;53.198;6.570;2022-08-23T05:54:27;5.90;;;4.15;;
20908;SDS011;10614;53.198;6.570;2022-08-23T05:56:29;5.90;;;3.67;;
20908;SDS011;10614;53.198;6.570;2022-08-23T05:58:34;5.15;;;3.63;;
20908;SDS011;10614;53.198;6.570;2022-08-23T06:00:35;6.78;;;4.32;;
20908;SDS011;10614;53.198;6.570;2022-08-23T06:02:38;5.35;;;3.38;;
20908;SDS011;10614;53.198;6.570;2022-08-23T06:04:41;5.47;;;3.53;;
20908;SDS011;10614;53.198;6.570;2022-08-23T06:06:42;5.15;;;3.53;;
20908;SDS011;10614;53.198;6.570;2022-08-23T06:08:44;6.80;;;4.40;;
20908;SDS011;10614;53.198;6.570;2022-08-23T06:10:48;8.55;;;4.65;;
20908;SDS011;10614;53.198;6.570;2022-08-23T06:12:49;9.35;;;4.30;;
20908;SDS011;10614;53.198;6.570;2022-08-23T06:14:51;8.00;;;4.60;;
20908;SDS011;10614;53.198;6.570;2022-08-23T06:16:53;8.05;;;4.90;;
20908;SDS011;10614;53.198;6.570;2022-08-23T06:18:56;6.65;;;4.32;;
20908;SDS011;10614;53.198;6.570;2022-08-23T06:21:01;5.65;;;4.03;;
20908;SDS011;10614;53.198;6.570;2022-08-23T06:23:05;6.03;;;4.20;;
20908;SDS011;10614;53.198;6.570;2022-08-23T06:25:07;6.28;;;4.35;;
20908;SDS011;10614;53.198;6.570;2022-08-23T06:27:09;7.32;;;4.93;;
20908;SDS011;10614;53.198;6.570;2022-08-23T06:29:12;6.80;;;4.70;;
20908;SDS011;10614;53.198;6.570;2022-08-23T06:31:16;6.22;;;4.55;;
20908;SDS011;10614;53.198;6.570;2022-08-23T06:33:39;6.75;;;4.30;;
20908;SDS011;10614;53.198;6.570;2022-08-23T06:35:43;6.22;;;4.00;;
20908;SDS011;10614;53.198;6.570;2022-08-23T06:37:45;6.90;;;4.47;;
20908;SDS011;10614;53.198;6.570;2022-08-23T06:39:47;7.28;;;4.18;;
20908;SDS011;10614;53.198;6.570;2022-08-23T06:41:48;6.70;;;4.40;;
20908;SDS011;10614;53.198;6.570;2022-08-23T06:43:50;7.30;;;4.82;;
20908;SDS011;10614;53.198;6.570;2022-08-23T06:45:52;6.60;;;3.92;;
20908;SDS011;10614;53.198;6.570;2022-08-23T06:47:54;8.00;;;4.95;;
20908;SDS011;10614;53.198;6.570;2022-08-23T06:49:56;9.52;;;4.68;;
20908;SDS011;10614;53.198;6.570;2022-08-23T06:51:59;8.98;;;4.93;;
20908;SDS011;10614;53.198;6.570;2022-08-23T06:54:03;9.48;;;5.10;;
20908;SDS011;10614;53.198;6.570;2022-08-23T06:56:07;7.65;;;4.70;;
20908;SDS011;10614;53.198;6.570;2022-08-23T06:58:09;8.85;;;4.95;;
20908;SDS011;10614;53.198;6.570;2022-08-23T07:00:11;10.63;;;4.72;;
20908;SDS011;10614;53.198;6.570;2022-08-23T07:02:14;6.45;;;4.20;;
20908;SDS011;10614;53.198;6.570;2022-08-23T07:04:17;8.52;;;4.47;;
20908;SDS011;10614;53.198;6.570;2022-08-23T07:06:20;9.48;;;4.60;;
20908;SDS011;10614;53.198;6.570;2022-08-23T07:08:23;5.95;;;4.10;;
20908;SDS011;10614;53.198;6.570;2022-08-23T07:10:25;6.63;;;3.88;;
20908;SDS011;10614;53.198;6.570;2022-08-23T07:12:27;7.78;;;4.43;;
20908;SDS011;10614;53.198;6.570;2022-08-23T07:14:29;9.73;;;4.50;;
20908;SDS011;10614;53.198;6.570;2022-08-23T07:16:31;9.00;;;4.57;;
20908;SDS011;10614;53.198;6.570;2022-08-23T07:18:34;8.73;;;4.47;;
20908;SDS011;10614;53.198;6.570;2022-08-23T07:20:35;6.38;;;3.78;;
20908;SDS011;10614;53.198;6.570;2022-08-23T07:22:37;5.95;;;4.43;;
20908;SDS011;10614;53.198;6.570;2022-08-23T07:24:40;6.38;;;4.53;;
20908;SDS011;10614;53.198;6.570;2022-08-23T07:26:44;9.27;;;6.05;;
20908;SDS011;10614;53.198;6.570;2022-08-23T07:28:46;7.35;;;4.30;;
20908;SDS011;10614;53.198;6.570;2022-08-23T07:30:49;8.10;;;5.00;;
20908;SDS011;10614;53.198;6.570;2022-08-23T07:32:50;7.55;;;5.13;;
20908;SDS011;10614;53.198;6.570;2022-08-23T07:34:52;5.47;;;4.00;;
20908;SDS011;10614;53.198;6.570;2022-08-23T07:36:54;5.78;;;3.80;;
20908;SDS011;10614;53.198;6.570;2022-08-23T07:38:56;5.72;;;4.10;;
20908;SDS011;10614;53.198;6.570;2022-08-23T07:40:59;5.25;;;3.75;;
20908;SDS011;10614;53.198;6.570;2022-08-23T07:45:04;7.88;;;4.72;;
20908;SDS011;10614;53.198;6.570;2022-08-23T07:47:06;5.78;;;3.72;;
20908;SDS011;10614;53.198;6.570;2022-08-23T07:49:08;4.75;;;3.50;;
20908;SDS011;10614;53.198;6.570;2022-08-23T07:51:12;4.72;;;3.20;;
20908;SDS011;10614;53.198;6.570;2022-08-23T07:53:15;4.28;;;3.22;;
20908;SDS011;10614;53.198;6.570;2022-08-23T07:55:16;5.55;;;3.80;;
20908;SDS011;10614;53.198;6.570;2022-08-23T07:57:19;5.25;;;3.45;;
20908;SDS011;10614;53.198;6.570;2022-08-23T07:59:21;4.60;;;3.33;;
20908;SDS011;10614;53.198;6.570;2022-08-23T08:01:24;4.65;;;3.25;;
20908;SDS011;10614;53.198;6.570;2022-08-23T08:03:27;5.55;;;3.30;;
20908;SDS011;10614;53.198;6.570;2022-08-23T08:05:30;5.03;;;3.40;;
20908;SDS011;10614;53.198;6.570;2022-08-23T08:07:32;5.68;;;3.17;;
20908;SDS011;10614;53.198;6.570;2022-08-23T08:09:34;4.50;;;3.13;;
20908;SDS011;10614;53.198;6.570;2022-08-23T08:11:36;5.80;;;3.33;;
20908;SDS011;10614;53.198;6.570;2022-08-23T08:13:39;4.07;;;2.88;;
20908;SDS011;10614;53.198;6.570;2022-08-23T08:15:41;5.07;;;3.15;;
20908;SDS011;10614;53.198;6.570;2022-08-23T08:17:45;5.35;;;3.10;;
20908;SDS011;10614;53.198;6.570;2022-08-23T08:19:47;5.05;;;3.30;;
20908;SDS011;10614;53.198;6.570;2022-08-23T08:21:49;4.07;;;2.65;;
20908;SDS011;10614;53.198;6.570;2022-08-23T08:23:51;4.50;;;3.17;;
20908;SDS011;10614;53.198;6.570;2022-08-23T08:25:57;7.30;;;4.35;;
20908;SDS011;10614;53.198;6.570;2022-08-23T08:28:01;5.40;;;3.22;;
20908;SDS011;10614;53.198;6.570;2022-08-23T08:30:05;7.00;;;3.88;;
20908;SDS011;10614;53.198;6.570;2022-08-23T08:32:09;5.05;;;3.28;;
20908;SDS011;10614;53.198;6.570;2022-08-23T08:34:11;6.40;;;3.67;;
20908;SDS011;10614;53.198;6.570;2022-08-23T08:36:26;5.97;;;4.03;;
20908;SDS011;10614;53.198;6.570;2022-08-23T08:38:29;5.18;;;3.40;;
20908;SDS011;10614;53.198;6.570;2022-08-23T08:40:32;6.18;;;3.22;;
20908;SDS011;10614;53.198;6.570;2022-08-23T08:42:44;4.78;;;3.13;;
20908;SDS011;10614;53.198;6.570;2022-08-23T08:44:55;4.72;;;3.25;;
20908;SDS011;10614;53.198;6.570;2022-08-23T08:47:03;4.85;;;3.00;;
20908;SDS011;10614;53.198;6.570;2022-08-23T08:49:08;4.47;;;3.22;;
20908;SDS011;10614;53.198;6.570;2022-08-23T08:51:19;6.38;;;3.20;;
20908;SDS011;10614;53.198;6.570;2022-08-23T08:53:35;4.72;;;2.67;;
20908;SDS011;10614;53.198;6.570;2022-08-23T08:55:41;5.15;;;3.17;;
20908;SDS011;10614;53.198;6.570;2022-08-23T08:57:46;4.38;;;3.20;;
20908;SDS011;10614;53.198;6.570;2022-08-23T08:59:51;4.83;;;3.07;;
20908;SDS011;10614;53.198;6.570;2022-08-23T09:01:56;4.43;;;2.90;;
20908;SDS011;10614;53.198;6.570;2022-08-23T09:04:00;3.88;;;2.70;;
20908;SDS011;10614;53.198;6.570;2022-08-23T09:06:04;3.78;;;2.67;;
20908;SDS011;10614;53.198;6.570;2022-08-23T09:08:17;4.13;;;2.42;;
20908;SDS011;10614;53.198;6.570;2022-08-23T09:10:45;5.03;;;3.28;;
20908;SDS011;10614;53.198;6.570;2022-08-23T09:15:05;3.22;;;2.58;;
20908;SDS011;10614;53.198;6.570;2022-08-23T09:17:22;4.95;;;2.65;;
20908;SDS011;10614;53.198;6.570;2022-08-23T09:19:35;3.60;;;2.38;;
20908;SDS011;10614;53.198;6.570;2022-08-23T09:21:40;4.43;;;2.75;;
20908;SDS011;10614;53.198;6.570;2022-08-23T09:23:46;3.53;;;2.55;;
20908;SDS011;10614;53.198;6.570;2022-08-23T09:27:52;4.93;;;2.65;;
20908;SDS011;10614;53.198;6.570;2022-08-23T09:29:55;5.55;;;2.63;;
20908;SDS011;10614;53.198;6.570;2022-08-23T09:32:00;3.85;;;2.97;;
20908;SDS011;10614;53.198;6.570;2022-08-23T09:34:05;3.10;;;2.20;;
20908;SDS011;10614;53.198;6.570;2022-08-23T09:36:13;4.05;;;2.53;;
20908;SDS011;10614;53.198;6.570;2022-08-23T09:38:18;3.25;;;2.40;;
20908;SDS011;10614;53.198;6.570;2022-08-23T09:40:24;3.88;;;2.50;;
20908;SDS011;10614;53.198;6.570;2022-08-23T09:42:31;3.33;;;2.20;;
20908;SDS011;10614;53.198;6.570;2022-08-23T09:44:37;3.97;;;2.40;;
20908;SDS011;10614;53.198;6.570;2022-08-23T09:46:39;4.18;;;2.40;;
20908;SDS011;10614;53.198;6.570;2022-08-23T09:48:42;2.92;;;1.92;;
20908;SDS011;10614;53.198;6.570;2022-08-23T09:50:47;3.72;;;2.00;;
20908;SDS011;10614;53.198;6.570;2022-08-23T09:52:55;3.05;;;1.98;;
20908;SDS011;10614;53.198;6.570;2022-08-23T09:54:59;3.20;;;2.03;;
20908;SDS011;10614;53.198;6.570;2022-08-23T09:57:05;2.53;;;2.05;;
20908;SDS011;10614;53.198;6.570;2022-08-23T09:59:19;2.35;;;1.60;;
20908;SDS011;10614;53.198;6.570;2022-08-23T10:01:30;2.60;;;1.90;;
20908;SDS011;10614;53.198;6.570;2022-08-23T10:03:35;2.83;;;1.80;;
20908;SDS011;10614;53.198;6.570;2022-08-23T10:05:38;3.08;;;2.08;;
20908;SDS011;10614;53.198;6.570;2022-08-23T10:07:41;2.70;;;1.95;;
20908;SDS011;10614;53.198;6.570;2022-08-23T10:09:46;2.42;;;1.75;;
20908;SDS011;10614;53.198;6.570;2022-08-23T10:11:48;3.65;;;1.85;;
20908;SDS011;10614;53.198;6.570;2022-08-23T10:13:50;2.63;;;1.95;;
20908;SDS011;10614;53.198;6.570;2022-08-23T10:15:54;2.80;;;2.05;;
20908;SDS011;10614;53.198;6.570;2022-08-23T10:18:07;3.40;;;1.95;;
20908;SDS011;10614;53.198;6.570;2022-08-23T10:20:20;3.72;;;2.15;;
20908;SDS011;10614;53.198;6.570;2022-08-23T10:22:35;3.63;;;2.10;;
20908;SDS011;10614;53.198;6.570;2022-08-23T10:24:44;2.65;;;1.90;;
20908;SDS011;10614;53.198;6.570;2022-08-23T10:26:57;3.47;;;1.98;;
20908;SDS011;10614;53.198;6.570;2022-08-23T10:29:28;4.05;;;2.20;;
20908;SDS011;10614;53.198;6.570;2022-08-23T10:31:38;2.78;;;2.05;;
20908;SDS011;10614;53.198;6.570;2022-08-23T10:33:48;4.32;;;1.98;;
20908;SDS011;10614;53.198;6.570;2022-08-23T10:35:59;2.83;;;2.08;;
20908;SDS011;10614;53.198;6.570;2022-08-23T10:40:39;4.65;;;2.28;;
20908;SDS011;10614;53.198;6.570;2022-08-23T10:42:49;4.50;;;2.05;;
20908;SDS011;10614;53.198;6.570;2022-08-23T10:45:08;2.47;;;1.90;;
20908;SDS011;10614;53.198;6.570;2022-08-23T10:47:17;2.58;;;1.90;;
20908;SDS011;10614;53.198;6.570;2022-08-23T10:49:30;3.65;;;1.92;;
20908;SDS011;10614;53.198;6.570;2022-08-23T10:51:36;3.40;;;1.95;;
20908;SDS011;10614;53.198;6.570;2022-08-23T10:53:42;3.72;;;1.98;;
20908;SDS011;10614;53.198;6.570;2022-08-23T10:55:52;3.47;;;2.17;;
20908;SDS011;10614;53.198;6.570;2022-08-23T10:58:03;2.92;;;2.05;;
20908;SDS011;10614;53.198;6.570;2022-08-23T11:00:12;3.80;;;2.30;;
20908;SDS011;10614;53.198;6.570;2022-08-23T11:02:17;3.75;;;2.00;;
20908;SDS011;10614;53.198;6.570;2022-08-23T11:04:28;3.53;;;2.15;;
20908;SDS011;10614;53.198;6.570;2022-08-23T11:06:45;2.97;;;1.95;;
20908;SDS011;10614;53.198;6.570;2022-08-23T11:08:55;3.80;;;2.53;;
20908;SDS011;10614;53.198;6.570;2022-08-23T11:10:59;3.22;;;2.22;;
20908;SDS011;10614;53.198;6.570;2022-08-23T11:13:03;4.00;;;2.08;;
20908;SDS011;10614;53.198;6.570;2022-08-23T11:15:36;3.88;;;2.13;;
20908;SDS011;10614;53.198;6.570;2022-08-23T11:17:52;5.88;;;2.20;;
20908;SDS011;10614;53.198;6.570;2022-08-23T11:19:57;3.45;;;2.17;;
20908;SDS011;10614;53.198;6.570;2022-08-23T11:22:12;2.88;;;2.08;;
20908;SDS011;10614;53.198;6.570;2022-08-23T11:24:27;3.95;;;2.00;;
20908;SDS011;10614;53.198;6.570;2022-08-23T11:31:28;3.05;;;2.20;;
20908;SDS011;10614;53.198;6.570;2022-08-23T11:33:35;4.68;;;2.08;;
20908;SDS011;10614;53.198;6.570;2022-08-23T11:35:46;3.00;;;1.98;;
20908;SDS011;10614;53.198;6.570;2022-08-23T11:37:52;4.40;;;2.63;;
20908;SDS011;10614;53.198;6.570;2022-08-23T11:40:07;2.67;;;1.90;;
20908;SDS011;10614;53.198;6.570;2022-08-23T11:42:10;3.33;;;2.03;;
20908;SDS011;10614;53.198;6.570;2022-08-23T11:44:20;2.70;;;1.75;;
20908;SDS011;10614;53.198;6.570;2022-08-23T11:46:32;3.60;;;1.92;;
20908;SDS011;10614;53.198;6.570;2022-08-23T11:48:35;3.55;;;1.90;;
20908;SDS011;10614;53.198;6.570;2022-08-23T11:50:43;2.50;;;1.85;;
20908;SDS011;10614;53.198;6.570;2022-08-23T11:53:03;2.35;;;1.60;;
20908;SDS011;10614;53.198;6.570;2022-08-23T11:55:19;2.67;;;1.60;;
20908;SDS011;10614;53.198;6.570;2022-08-23T11:57:29;4.15;;;2.38;;
20908;SDS011;10614;53.198;6.570;2022-08-23T11:59:55;2.45;;;1.80;;
20908;SDS011;10614;53.198;6.570;2022-08-23T12:02:29;2.40;;;1.83;;
20908;SDS011;10614;53.198;6.570;2022-08-23T12:04:37;3.13;;;1.83;;
20908;SDS011;10614;53.198;6.570;2022-08-23T12:06:46;2.50;;;2.03;;
20908;SDS011;10614;53.198;6.570;2022-08-23T12:08:52;2.35;;;2.03;;
20908;SDS011;10614;53.198;6.570;2022-08-23T12:11:03;3.92;;;1.77;;
20908;SDS011;10614;53.198;6.570;2022-08-23T12:13:25;3.60;;;1.73;;
20908;SDS011;10614;53.198;6.570;2022-08-23T12:16:02;3.10;;;1.77;;
20908;SDS011;10614;53.198;6.570;2022-08-23T12:18:12;2.30;;;1.80;;
20908;SDS011;10614;53.198;6.570;2022-08-23T12:20:20;3.15;;;1.75;;
20908;SDS011;10614;53.198;6.570;2022-08-23T12:22:28;6.70;;;2.22;;
20908;SDS011;10614;53.198;6.570;2022-08-23T12:24:39;3.17;;;1.90;;
20908;SDS011;10614;53.198;6.570;2022-08-23T12:26:44;3.67;;;1.80;;
20908;SDS011;10614;53.198;6.570;2022-08-23T12:28:55;2.10;;;1.60;;
20908;SDS011;10614;53.198;6.570;2022-08-23T12:31:03;1.60;;;1.50;;
20908;SDS011;10614;53.198;6.570;2022-08-23T12:33:20;2.40;;;1.70;;
20908;SDS011;10614;53.198;6.570;2022-08-23T12:35:33;2.88;;;2.00;;
20908;SDS011;10614;53.198;6.570;2022-08-23T12:37:46;2.42;;;1.80;;
20908;SDS011;10614;53.198;6.570;2022-08-23T12:39:57;1.73;;;1.40;;
20908;SDS011;10614;53.198;6.570;2022-08-23T12:44:06;1.85;;;1.60;;
20908;SDS011;10614;53.198;6.570;2022-08-23T12:46:09;2.50;;;1.40;;
20908;SDS011;10614;53.198;6.570;2022-08-23T12:48:12;2.17;;;1.50;;
20908;SDS011;10614;53.198;6.570;2022-08-23T12:50:21;1.67;;;1.38;;
20908;SDS011;10614;53.198;6.570;2022-08-23T12:52:27;3.63;;;1.65;;
20908;SDS011;10614;53.198;6.570;2022-08-23T12:54:32;2.33;;;1.60;;